createdAt,value
2023-01-19T00:04:59.829Z,98840.20
2023-01-19T00:10:03.634Z,98858.40
2023-01-19T00:15:08.370Z,98874.60
2023-01-19T00:21:08.618Z,98878.60
2023-01-19T00:26:12.459Z,98894.40
2023-01-19T00:31:16.124Z,98920.40
2023-01-19T00:36:20.197Z,98932.40
2023-01-19T00:42:01.396Z,98940.80
2023-01-19T00:47:05.945Z,98956.20
2023-01-19T00:52:09.681Z,98962.40
2023-01-19T00:57:13.706Z,98975.60
2023-01-19T01:02:17.520Z,98976.20
2023-01-19T01:07:25.170Z,98977.20
2023-01-19T01:12:29.061Z,98991.60
2023-01-19T01:17:32.936Z,98980.80
2023-01-19T01:22:36.714Z,98991.80
2023-01-19T01:27:40.539Z,99008.80
2023-01-19T01:32:44.266Z,99012.80
2023-01-19T01:37:47.992Z,99026.40
2023-01-19T01:42:51.704Z,99035.20
2023-01-19T01:48:02.327Z,99040.40
2023-01-19T01:53:16.361Z,99054.60
2023-01-19T01:58:20.076Z,99064.20
2023-01-19T02:03:25.894Z,99066.60
2023-01-19T02:09:26.657Z,99080.20
2023-01-19T02:14:30.271Z,99087.00
2023-01-19T02:19:44.202Z,99084.60
2023-01-19T02:31:40.491Z,99098.80
2023-01-19T02:37:03.774Z,99109.40
2023-01-19T02:52:47.559Z,99090.80
2023-01-19T02:58:09.147Z,99090.00
2023-01-19T03:03:43.083Z,99101.80
2023-01-19T03:09:29.980Z,99098.80
2023-01-19T03:14:41.982Z,99103.40
2023-01-19T03:19:50.853Z,99099.80
2023-01-19T03:25:01.705Z,99097.80
2023-01-19T03:30:15.830Z,99089.80
2023-01-19T03:35:24.264Z,99086.60
2023-01-19T03:40:32.495Z,99097.20
2023-01-19T03:45:40.010Z,99079.60
2023-01-19T03:50:43.728Z,99088.20
2023-01-19T03:56:21.230Z,99084.20
2023-01-19T04:01:26.070Z,99070.00
2023-01-19T04:06:29.621Z,99071.40
2023-01-19T04:11:33.180Z,99068.00
2023-01-19T04:16:36.854Z,99079.40
2023-01-19T04:28:44.209Z,99095.00
2023-01-19T04:33:47.737Z,99097.80
2023-01-19T05:09:19.014Z,99144.40
2023-01-19T05:14:58.226Z,99140.00
2023-01-19T05:20:02.236Z,99145.00
2023-01-19T05:25:24.981Z,99148.00
2023-01-19T05:37:49.871Z,99158.40
2023-01-19T05:42:53.663Z,99160.20
2023-01-19T05:47:57.695Z,99176.80
2023-01-19T05:53:03.568Z,99182.80
2023-01-19T05:58:07.408Z,99199.20
2023-01-19T06:03:11.314Z,99206.40
2023-01-19T06:08:15.046Z,99215.20
2023-01-19T06:13:18.974Z,99230.20
2023-01-19T06:18:22.681Z,99243.40
2023-01-19T06:23:30.616Z,99245.80
2023-01-19T06:28:34.375Z,99258.00
2023-01-19T06:33:37.979Z,99271.00
2023-01-19T06:45:46.175Z,99282.00
2023-01-19T06:50:50.461Z,99282.60
2023-01-19T06:55:54.922Z,99285.60
2023-01-19T07:01:36.893Z,99289.60
2023-01-19T07:06:40.901Z,99294.40
2023-01-19T07:19:14.014Z,99325.00
2023-01-19T07:25:08.438Z,99339.80
2023-01-19T07:30:31.273Z,99360.40
2023-01-19T07:36:02.980Z,99377.20
2023-01-19T07:41:10.163Z,99376.60
2023-01-19T07:46:39.202Z,99377.60
2023-01-19T07:52:01.779Z,99373.80
2023-01-19T07:57:36.612Z,99386.80
2023-01-19T08:03:18.236Z,99379.80
2023-01-19T08:09:58.097Z,99383.00
2023-01-19T08:15:01.929Z,99386.00
2023-01-19T08:20:32.496Z,99387.60
2023-01-19T08:26:52.903Z,99381.80
2023-01-19T08:33:14.906Z,99387.40
2023-01-19T08:38:46.312Z,99378.40
2023-01-19T08:44:13.000Z,99391.60
2023-01-19T08:56:22.105Z,99414.40
2023-01-19T09:01:26.230Z,99414.00
2023-01-19T09:06:34.685Z,99416.80
2023-01-19T09:11:57.028Z,99422.60
2023-01-19T09:17:26.851Z,99425.60
2023-01-19T09:22:30.478Z,99431.20
2023-01-19T09:34:44.915Z,99423.40
2023-01-19T09:41:05.248Z,99425.00
2023-01-19T09:47:02.607Z,99428.60
2023-01-19T10:06:36.602Z,99426.00
2023-01-19T10:12:19.049Z,99425.80
2023-01-19T10:32:13.250Z,99434.60
2023-01-19T10:37:32.179Z,99432.60
2023-01-19T10:42:38.025Z,99433.80
2023-01-19T10:47:43.995Z,99438.20
2023-01-19T10:52:53.812Z,99439.80
2023-01-19T10:57:59.267Z,99435.80
2023-01-19T11:13:15.976Z,99407.20
2023-01-19T11:25:49.393Z,99411.00
2023-01-19T11:40:14.267Z,99412.20
2023-01-19T11:47:01.133Z,99419.60
2023-01-19T11:52:15.499Z,99409.40
2023-01-19T11:57:50.266Z,99403.20
2023-01-19T12:32:31.973Z,99393.80
2023-01-19T12:52:48.292Z,99394.40
2023-01-19T12:58:15.000Z,99389.60
2023-01-19T13:22:06.670Z,99390.60
2023-01-19T13:27:41.223Z,99394.40
2023-01-19T13:44:52.906Z,99395.60
2023-01-19T13:49:59.322Z,99393.80
2023-01-19T14:03:52.524Z,99402.60
2023-01-19T14:09:19.040Z,99404.00
2023-01-19T14:21:45.075Z,99428.40
2023-01-19T14:42:16.074Z,99446.40
2023-01-19T14:47:35.318Z,99442.40
2023-01-19T14:52:42.773Z,99450.20
2023-01-19T14:57:47.686Z,99443.20
2023-01-19T15:02:51.626Z,99453.80
2023-01-19T15:07:57.371Z,99449.20
2023-01-19T15:13:01.479Z,99460.40
2023-01-19T15:42:53.736Z,99463.60
2023-01-19T15:48:11.237Z,99462.20
2023-01-19T16:00:43.957Z,99479.20
2023-01-19T16:06:37.944Z,99486.60
2023-01-19T16:19:26.249Z,99493.20
2023-01-19T16:24:29.865Z,99493.20
2023-01-19T16:29:52.488Z,99496.40
2023-01-19T16:34:56.090Z,99503.20
2023-01-19T16:39:59.907Z,99499.60
2023-01-19T16:53:42.521Z,99501.80
2023-01-19T17:06:42.779Z,99499.80
2023-01-19T17:11:47.045Z,99498.20
2023-01-19T17:16:50.786Z,99505.00
2023-01-19T17:22:44.639Z,99499.20
2023-01-19T17:27:48.352Z,99501.40
2023-01-19T17:34:18.307Z,99500.60
2023-01-19T17:40:18.468Z,99505.60
2023-01-19T17:45:48.006Z,99500.80
2023-01-19T17:51:11.366Z,99503.60
2023-01-19T17:56:41.714Z,99507.00
2023-01-19T18:02:04.112Z,99503.60
2023-01-19T18:07:10.452Z,99500.20
2023-01-19T18:12:33.225Z,99498.60
2023-01-19T18:25:11.756Z,99489.20
2023-01-19T18:31:13.209Z,99490.00
2023-01-19T18:36:36.917Z,99489.00
2023-01-19T18:41:44.003Z,99487.80
2023-01-19T18:47:06.469Z,99484.60
2023-01-19T18:52:35.664Z,99491.40
2023-01-19T18:58:34.381Z,99495.00
2023-01-19T19:12:52.937Z,99492.20
2023-01-19T19:41:04.452Z,99501.20
2023-01-19T19:46:23.285Z,99493.60
2023-01-19T19:51:31.135Z,99499.60
2023-01-19T19:56:37.095Z,99505.80
2023-01-19T20:01:44.931Z,99512.60
2023-01-19T20:28:21.998Z,99513.60
2023-01-19T20:33:25.854Z,99518.40
2023-01-19T20:38:29.893Z,99519.60
2023-01-19T20:44:55.661Z,99518.60
2023-01-19T20:49:59.371Z,99518.80
2023-01-19T21:02:19.034Z,99523.60
2023-01-19T21:07:22.925Z,99519.60
2023-01-19T21:12:26.757Z,99534.20
2023-01-19T21:17:30.393Z,99539.80
2023-01-19T21:22:34.119Z,99540.00
2023-01-19T21:27:38.024Z,99537.20
2023-01-19T21:32:42.363Z,99544.60
2023-01-19T21:37:46.213Z,99553.40
2023-01-19T21:42:49.957Z,99559.80
2023-01-19T21:47:53.938Z,99561.40
2023-01-19T21:52:58.591Z,99571.40
2023-01-19T22:04:54.022Z,99583.60
2023-01-19T22:10:02.485Z,99582.80
2023-01-19T22:16:51.887Z,99583.40
2023-01-19T22:22:02.208Z,99584.00
2023-01-19T22:27:12.423Z,99592.40
2023-01-19T22:32:17.487Z,99595.80
2023-01-19T22:38:56.892Z,99595.40
2023-01-19T22:44:51.200Z,99592.20
2023-01-19T22:57:02.473Z,99594.00
2023-01-19T23:03:22.968Z,99599.80
2023-01-19T23:08:52.692Z,99616.00
2023-01-19T23:13:58.893Z,99625.00
2023-01-19T23:19:28.209Z,99622.60
2023-01-19T23:24:32.042Z,99640.60
2023-01-19T23:29:54.688Z,99637.00
2023-01-19T23:35:49.066Z,99642.00
2023-01-19T23:42:14.837Z,99644.40
2023-01-19T23:54:45.423Z,99661.60
